sensor_id;sensor_type;location;lat;lon;timestamp;pressure;altitude;pressure_sealevel;temperature;humidity
53619;BME280;68717;53.040;18.488;2023-05-29T00:00:09;101575.16;;;10.23;100.00
53619;BME280;68717;53.040;18.488;2023-05-29T00:00:42;101574.41;;;10.21;100.00
53619;BME280;68717;53.040;18.488;2023-05-29T00:01:09;101570.84;;;10.21;100.00
53619;BME280;68717;53.040;18.488;2023-05-29T00:01:23;101577.19;;;10.20;100.00
53619;BME280;68717;53.040;18.488;2023-05-29T00:01:36;101574.50;;;10.20;100.00
53619;BME280;68717;53.040;18.488;2023-05-29T00:01:50;101574.50;;;10.20;100.00
53619;BME280;68717;53.040;18.488;2023-05-29T00:02:02;101573.66;;;10.19;100.00
53619;BME280;68717;53.040;18.488;2023-05-29T00:02:15;101573.66;;;10.19;100.00
53619;BME280;68717;53.040;18.488;2023-05-29T00:02:28;101573.66;;;10.19;100.00
53619;BME280;68717;53.040;18.488;2023-05-29T00:02:41;101575.47;;;10.19;100.00
53619;BME280;68717;53.040;18.488;2023-05-29T00:02:56;101573.66;;;10.19;100.00
53619;BME280;68717;53.040;18.488;2023-05-29T00:03:09;101579.88;;;10.20;100.00
53619;BME280;68717;53.040;18.488;2023-05-29T00:03:22;101571.84;;;10.20;100.00
53619;BME280;68717;53.040;18.488;2023-05-29T00:03:35;101582.56;;;10.20;100.00
53619;BME280;68717;53.040;18.488;2023-05-29T00:03:48;101569.16;;;10.20;100.00
53619;BME280;68717;53.040;18.488;2023-05-29T00:04:02;101574.50;;;10.20;100.00
53619;BME280;68717;53.040;18.488;2023-05-29T00:04:15;101566.56;;;10.18;100.00
53619;BME280;68717;53.040;18.488;2023-05-29T00:04:29;101567.44;;;10.19;100.00
53619;BME280;68717;53.040;18.488;2023-05-29T00:04:57;101578.16;;;10.19;100.00
53619;BME280;68717;53.040;18.488;2023-05-29T00:05:10;101568.31;;;10.19;100.00
53619;BME280;68717;53.040;18.488;2023-05-29T00:05:24;101573.66;;;10.19;100.00
53619;BME280;68717;53.040;18.488;2023-05-29T00:05:51;101572.78;;;10.19;100.00
53619;BME280;68717;53.040;18.488;2023-05-29T00:06:27;101574.50;;;10.20;100.00
53619;BME280;68717;53.040;18.488;2023-05-29T00:06:57;101576.44;;;10.18;100.00
53619;BME280;68717;53.040;18.488;2023-05-29T00:07:11;101581.81;;;10.18;100.00
53619;BME280;68717;53.040;18.488;2023-05-29T00:07:23;101574.75;;;10.17;100.00
53619;BME280;68717;53.040;18.488;2023-05-29T00:07:49;101572.06;;;10.17;100.00
53619;BME280;68717;53.040;18.488;2023-05-29T00:08:02;101568.66;;;10.15;100.00
53619;BME280;68717;53.040;18.488;2023-05-29T00:08:15;101570.34;;;10.16;100.00
53619;BME280;68717;53.040;18.488;2023-05-29T00:08:28;101562.31;;;10.16;100.00
53619;BME280;68717;53.040;18.488;2023-05-29T00:08:40;101569.59;;;10.14;100.00
53619;BME280;68717;53.040;18.488;2023-05-29T00:08:54;101573.13;;;10.14;100.00
53619;BME280;68717;53.040;18.488;2023-05-29T00:09:07;101568.75;;;10.13;100.00
53619;BME280;68717;53.040;18.488;2023-05-29T00:09:20;101569.59;;;10.14;100.00
53619;BME280;68717;53.040;18.488;2023-05-29T00:09:33;101565.22;;;10.13;100.00
53619;BME280;68717;53.040;18.488;2023-05-29T00:09:45;101574.19;;;10.12;100.00
53619;BME280;68717;53.040;18.488;2023-05-29T00:09:58;101568.00;;;10.11;100.00
53619;BME280;68717;53.040;18.488;2023-05-29T00:10:11;101568.94;;;10.10;100.00
53619;BME280;68717;53.040;18.488;2023-05-29T00:10:24;101569.94;;;10.09;100.00
53619;BME280;68717;53.040;18.488;2023-05-29T00:10:37;101566.41;;;10.09;100.00
53619;BME280;68717;53.040;18.488;2023-05-29T00:10:50;101567.34;;;10.07;100.00
53619;BME280;68717;53.040;18.488;2023-05-29T00:11:03;101566.59;;;10.05;100.00
53619;BME280;68717;53.040;18.488;2023-05-29T00:11:15;101563.06;;;10.05;100.00
53619;BME280;68717;53.040;18.488;2023-05-29T00:11:28;101564.91;;;10.04;100.00
53619;BME280;68717;53.040;18.488;2023-05-29T00:11:41;101570.25;;;10.04;100.00
53619;BME280;68717;53.040;18.488;2023-05-29T00:11:53;101561.38;;;10.04;100.00
53619;BME280;68717;53.040;18.488;2023-05-29T00:12:07;101566.81;;;10.02;100.00
53619;BME280;68717;53.040;18.488;2023-05-29T00:12:20;101565.97;;;10.02;100.00
53619;BME280;68717;53.040;18.488;2023-05-29T00:12:34;101562.41;;;10.01;100.00
53619;BME280;68717;53.040;18.488;2023-05-29T00:12:47;101560.81;;;9.99;100.00
53619;BME280;68717;53.040;18.488;2023-05-29T00:12:59;101558.13;;;9.99;100.00
53619;BME280;68717;53.040;18.488;2023-05-29T00:13:13;101561.91;;;9.96;100.00
53619;BME280;68717;53.040;18.488;2023-05-29T00:13:27;101568.09;;;9.97;100.00
53619;BME280;68717;53.040;18.488;2023-05-29T00:13:40;101563.81;;;9.94;100.00
53619;BME280;68717;53.040;18.488;2023-05-29T00:13:52;101555.78;;;9.94;100.00
53619;BME280;68717;53.040;18.488;2023-05-29T00:14:05;101556.78;;;9.93;100.00
53619;BME280;68717;53.040;18.488;2023-05-29T00:14:18;101563.94;;;9.93;100.00
53619;BME280;68717;53.040;18.488;2023-05-29T00:14:31;101562.13;;;9.93;100.00
53619;BME280;68717;53.040;18.488;2023-05-29T00:14:45;101565.75;;;9.92;100.00
53619;BME280;68717;53.040;18.488;2023-05-29T00:14:58;101566.59;;;9.93;100.00
53619;BME280;68717;53.040;18.488;2023-05-29T00:15:10;101560.41;;;9.92;100.00
53619;BME280;68717;53.040;18.488;2023-05-29T00:15:24;101566.59;;;9.93;100.00
53619;BME280;68717;53.040;18.488;2023-05-29T00:15:37;101563.94;;;9.93;100.00
53619;BME280;68717;53.040;18.488;2023-05-29T00:16:13;101560.41;;;9.92;100.00
53619;BME280;68717;53.040;18.488;2023-05-29T00:16:26;101565.75;;;9.92;100.00
53619;BME280;68717;53.040;18.488;2023-05-29T00:16:54;101560.41;;;9.92;100.00
53619;BME280;68717;53.040;18.488;2023-05-29T00:17:07;101557.72;;;9.92;100.00
53619;BME280;68717;53.040;18.488;2023-05-29T00:17:38;101560.41;;;9.92;100.00
53619;BME280;68717;53.040;18.488;2023-05-29T00:17:52;101566.72;;;9.91;100.00
53619;BME280;68717;53.040;18.488;2023-05-29T00:18:05;101563.22;;;9.91;100.00
53619;BME280;68717;53.040;18.488;2023-05-29T00:18:19;101560.63;;;9.89;100.00
53619;BME280;68717;53.040;18.488;2023-05-29T00:18:31;101560.63;;;9.89;100.00
53619;BME280;68717;53.040;18.488;2023-05-29T00:19:01;101563.41;;;9.88;100.00
53619;BME280;68717;53.040;18.488;2023-05-29T00:19:14;101559.03;;;9.87;100.00
53619;BME280;68717;53.040;18.488;2023-05-29T00:19:30;101558.16;;;9.86;100.00
53619;BME280;68717;53.040;18.488;2023-05-29T00:19:44;101556.44;;;9.85;100.00
53619;BME280;68717;53.040;18.488;2023-05-29T00:19:57;101561.81;;;9.85;100.00
53619;BME280;68717;53.040;18.488;2023-05-29T00:20:11;101562.75;;;9.84;100.00
53619;BME280;68717;53.040;18.488;2023-05-29T00:20:25;101553.88;;;9.83;100.00
53619;BME280;68717;53.040;18.488;2023-05-29T00:20:37;101557.41;;;9.84;100.00
53619;BME280;68717;53.040;18.488;2023-05-29T00:21:05;101559.22;;;9.83;100.00
53619;BME280;68717;53.040;18.488;2023-05-29T00:21:19;101555.69;;;9.83;100.00
53619;BME280;68717;53.040;18.488;2023-05-29T00:21:32;101554.84;;;9.82;100.00
53619;BME280;68717;53.040;18.488;2023-05-29T00:22:10;101557.63;;;9.81;100.00
53619;BME280;68717;53.040;18.488;2023-05-29T00:22:22;101560.31;;;9.81;100.00
53619;BME280;68717;53.040;18.488;2023-05-29T00:22:36;101555.94;;;9.80;100.00
53619;BME280;68717;53.040;18.488;2023-05-29T00:22:50;101562.13;;;9.80;100.00
53619;BME280;68717;53.040;18.488;2023-05-29T00:23:03;101561.28;;;9.80;100.00
53619;BME280;68717;53.040;18.488;2023-05-29T00:23:16;101560.41;;;9.79;100.00
53619;BME280;68717;53.040;18.488;2023-05-29T00:23:29;101560.31;;;9.81;100.00
53619;BME280;68717;53.040;18.488;2023-05-29T00:23:42;101559.44;;;9.80;100.00
53619;BME280;68717;53.040;18.488;2023-05-29T00:23:57;101558.59;;;9.80;100.00
53619;BME280;68717;53.040;18.488;2023-05-29T00:24:43;101559.56;;;9.79;100.00
53619;BME280;68717;53.040;18.488;2023-05-29T00:25:14;101561.38;;;9.78;100.00
53619;BME280;68717;53.040;18.488;2023-05-29T00:25:27;101560.53;;;9.78;100.00
53619;BME280;68717;53.040;18.488;2023-05-29T00:25:41;101556.97;;;9.77;100.00
53619;BME280;68717;53.040;18.488;2023-05-29T00:25:53;101557.94;;;9.76;100.00
53619;BME280;68717;53.040;18.488;2023-05-29T00:26:06;101558.91;;;9.75;100.00
53619;BME280;68717;53.040;18.488;2023-05-29T00:26:46;101562.56;;;9.74;100.00
53619;BME280;68717;53.040;18.488;2023-05-29T00:26:59;101561.72;;;9.74;100.00
53619;BME280;68717;53.040;18.488;2023-05-29T00:27:13;101566.22;;;9.73;100.00
53619;BME280;68717;53.040;18.488;2023-05-29T00:27:38;101563.63;;;9.72;100.00
53619;BME280;68717;53.040;18.488;2023-05-29T00:27:51;101565.47;;;9.71;100.00
53619;BME280;68717;53.040;18.488;2023-05-29T00:28:03;101567.25;;;9.71;100.00
53619;BME280;68717;53.040;18.488;2023-05-29T00:28:18;101566.41;;;9.70;100.00
53619;BME280;68717;53.040;18.488;2023-05-29T00:28:31;101561.06;;;9.70;100.00
53619;BME280;68717;53.040;18.488;2023-05-29T00:28:43;101562.88;;;9.70;100.00
53619;BME280;68717;53.040;18.488;2023-05-29T00:28:57;101562.88;;;9.70;100.00
53619;BME280;68717;53.040;18.488;2023-05-29T00:29:09;101570.06;;;9.69;100.00
53619;BME280;68717;53.040;18.488;2023-05-29T00:29:22;101562.13;;;9.68;100.00
53619;BME280;68717;53.040;18.488;2023-05-29T00:29:35;101565.66;;;9.68;100.00
53619;BME280;68717;53.040;18.488;2023-05-29T00:29:50;101570.16;;;9.68;100.00
53619;BME280;68717;53.040;18.488;2023-05-29T00:30:03;101568.44;;;9.67;100.00
53619;BME280;68717;53.040;18.488;2023-05-29T00:30:16;101566.63;;;9.67;100.00
53619;BME280;68717;53.040;18.488;2023-05-29T00:30:29;101563.06;;;9.67;100.00
53619;BME280;68717;53.040;18.488;2023-05-29T00:30:41;101567.47;;;9.68;100.00
53619;BME280;68717;53.040;18.488;2023-05-29T00:31:18;101575.50;;;9.68;100.00
53619;BME280;68717;53.040;18.488;2023-05-29T00:31:32;101579.03;;;9.68;100.00
53619;BME280;68717;53.040;18.488;2023-05-29T00:31:45;101573.69;;;9.68;100.00
53619;BME280;68717;53.040;18.488;2023-05-29T00:31:57;101578.19;;;9.68;100.00
53619;BME280;68717;53.040;18.488;2023-05-29T00:32:10;101571.84;;;9.69;100.00
53619;BME280;68717;53.040;18.488;2023-05-29T00:32:23;101567.47;;;9.68;100.00
53619;BME280;68717;53.040;18.488;2023-05-29T00:32:36;101578.19;;;9.68;100.00
53619;BME280;68717;53.040;18.488;2023-05-29T00:32:48;101570.16;;;9.68;100.00
53619;BME280;68717;53.040;18.488;2023-05-29T00:33:04;101578.19;;;9.68;100.00
53619;BME280;68717;53.040;18.488;2023-05-29T00:33:17;101572.84;;;9.68;100.00
53619;BME280;68717;53.040;18.488;2023-05-29T00:33:30;101578.19;;;9.68;100.00
53619;BME280;68717;53.040;18.488;2023-05-29T00:33:43;101578.19;;;9.68;100.00
53619;BME280;68717;53.040;18.488;2023-05-29T00:33:56;101575.50;;;9.68;100.00
53619;BME280;68717;53.040;18.488;2023-05-29T00:34:23;101576.47;;;9.67;100.00
53619;BME280;68717;53.040;18.488;2023-05-29T00:35:21;101576.59;;;9.65;100.00
53619;BME280;68717;53.040;18.488;2023-05-29T00:35:35;101577.44;;;9.65;100.00
53619;BME280;68717;53.040;18.488;2023-05-29T00:35:47;101577.44;;;9.65;100.00
53619;BME280;68717;53.040;18.488;2023-05-29T00:36:00;101579.28;;;9.65;100.00
53619;BME280;68717;53.040;18.488;2023-05-29T00:36:13;101577.44;;;9.65;100.00
53619;BME280;68717;53.040;18.488;2023-05-29T00:36:26;101579.28;;;9.65;100.00
53619;BME280;68717;53.040;18.488;2023-05-29T00:36:38;101578.41;;;9.64;100.00
53619;BME280;68717;53.040;18.488;2023-05-29T00:36:52;101583.78;;;9.64;100.00
53619;BME280;68717;53.040;18.488;2023-05-29T00:37:05;101585.47;;;9.65;100.00
53619;BME280;68717;53.040;18.488;2023-05-29T00:37:18;101578.41;;;9.64;100.00
53619;BME280;68717;53.040;18.488;2023-05-29T00:37:34;101582.91;;;9.64;100.00
53619;BME280;68717;53.040;18.488;2023-05-29T00:37:46;101587.41;;;9.63;100.00
53619;BME280;68717;53.040;18.488;2023-05-29T00:37:59;101587.41;;;9.63;100.00
53619;BME280;68717;53.040;18.488;2023-05-29T00:38:12;101591.06;;;9.62;100.00
53619;BME280;68717;53.040;18.488;2023-05-29T00:38:25;101583.03;;;9.62;100.00
53619;BME280;68717;53.040;18.488;2023-05-29T00:38:38;101583.97;;;9.61;100.00
53619;BME280;68717;53.040;18.488;2023-05-29T00:38:50;101582.28;;;9.60;100.00
53619;BME280;68717;53.040;18.488;2023-05-29T00:39:03;101583.13;;;9.61;100.00
53619;BME280;68717;53.040;18.488;2023-05-29T00:39:30;101582.28;;;9.60;100.00
53619;BME280;68717;53.040;18.488;2023-05-29T00:39:42;101587.63;;;9.60;100.00
53619;BME280;68717;53.040;18.488;2023-05-29T00:39:56;101582.28;;;9.60;100.00
53619;BME280;68717;53.040;18.488;2023-05-29T00:40:10;101577.88;;;9.59;100.00
53619;BME280;68717;53.040;18.488;2023-05-29T00:40:25;101583.22;;;9.59;100.00
53619;BME280;68717;53.040;18.488;2023-05-29T00:40:39;101584.94;;;9.60;100.00
53619;BME280;68717;53.040;18.488;2023-05-29T00:40:52;101579.69;;;9.59;100.00
53619;BME280;68717;53.040;18.488;2023-05-29T00:41:04;101585.03;;;9.59;100.00
53619;BME280;68717;53.040;18.488;2023-05-29T00:41:18;101581.50;;;9.58;100.00
53619;BME280;68717;53.040;18.488;2023-05-29T00:41:48;101578.84;;;9.58;100.00
53619;BME280;68717;53.040;18.488;2023-05-29T00:42:03;101578.84;;;9.58;100.00
53619;BME280;68717;53.040;18.488;2023-05-29T00:42:31;101577.00;;;9.59;100.00
53619;BME280;68717;53.040;18.488;2023-05-29T00:42:57;101582.47;;;9.57;100.00
53619;BME280;68717;53.040;18.488;2023-05-29T00:43:11;101581.50;;;9.58;100.00
53619;BME280;68717;53.040;18.488;2023-05-29T00:43:39;101586.13;;;9.56;100.00
53619;BME280;68717;53.040;18.488;2023-05-29T00:43:52;101586.13;;;9.56;100.00
53619;BME280;68717;53.040;18.488;2023-05-29T00:44:04;101577.25;;;9.56;100.00
53619;BME280;68717;53.040;18.488;2023-05-29T00:44:17;101581.84;;;9.54;100.00
53619;BME280;68717;53.040;18.488;2023-05-29T00:44:30;101581.84;;;9.54;100.00
53619;BME280;68717;53.040;18.488;2023-05-29T00:44:43;101586.31;;;9.53;100.00
53619;BME280;68717;53.040;18.488;2023-05-29T00:44:56;101583.63;;;9.53;100.00
53619;BME280;68717;53.040;18.488;2023-05-29T00:45:10;101579.25;;;9.52;100.00
53619;BME280;68717;53.040;18.488;2023-05-29T00:45:23;101583.75;;;9.52;100.00
53619;BME280;68717;53.040;18.488;2023-05-29T00:45:35;101581.94;;;9.52;100.00
53619;BME280;68717;53.040;18.488;2023-05-29T00:45:49;101583.75;;;9.52;100.00
53619;BME280;68717;53.040;18.488;2023-05-29T00:46:02;101580.19;;;9.51;100.00
53619;BME280;68717;53.040;18.488;2023-05-29T00:46:15;101581.19;;;9.50;100.00
53619;BME280;68717;53.040;18.488;2023-05-29T00:46:30;101579.44;;;9.49;100.00
53619;BME280;68717;53.040;18.488;2023-05-29T00:46:42;101583.09;;;9.48;100.00
53619;BME280;68717;53.040;18.488;2023-05-29T00:46:55;101583.09;;;9.48;100.00
53619;BME280;68717;53.040;18.488;2023-05-29T00:47:08;101591.13;;;9.48;100.00
53619;BME280;68717;53.040;18.488;2023-05-29T00:47:21;101587.59;;;9.48;100.00
53619;BME280;68717;53.040;18.488;2023-05-29T00:47:34;101584.06;;;9.47;100.00
53619;BME280;68717;53.040;18.488;2023-05-29T00:47:48;101583.19;;;9.47;100.00
53619;BME280;68717;53.040;18.488;2023-05-29T00:48:01;101587.59;;;9.48;100.00
53619;BME280;68717;53.040;18.488;2023-05-29T00:48:14;101586.75;;;9.47;100.00
53619;BME280;68717;53.040;18.488;2023-05-29T00:48:27;101579.66;;;9.46;100.00
53619;BME280;68717;53.040;18.488;2023-05-29T00:48:39;101587.69;;;9.46;100.00
53619;BME280;68717;53.040;18.488;2023-05-29T00:48:53;101581.50;;;9.46;100.00
53619;BME280;68717;53.040;18.488;2023-05-29T00:49:06;101590.38;;;9.46;100.00
53619;BME280;68717;53.040;18.488;2023-05-29T00:49:21;101587.69;;;9.46;100.00
53619;BME280;68717;53.040;18.488;2023-05-29T00:49:34;101585.03;;;9.46;100.00
53619;BME280;68717;53.040;18.488;2023-05-29T00:49:48;101583.31;;;9.45;100.00
53619;BME280;68717;53.040;18.488;2023-05-29T00:50:04;101588.69;;;9.45;100.00
53619;BME280;68717;53.040;18.488;2023-05-29T00:50:20;101585.13;;;9.44;100.00
53619;BME280;68717;53.040;18.488;2023-05-29T00:50:35;101582.56;;;9.43;100.00
53619;BME280;68717;53.040;18.488;2023-05-29T00:50:49;101586.94;;;9.44;100.00
53619;BME280;68717;53.040;18.488;2023-05-29T00:51:03;101582.56;;;9.43;100.00
53619;BME280;68717;53.040;18.488;2023-05-29T00:51:16;101583.50;;;9.42;100.00
53619;BME280;68717;53.040;18.488;2023-05-29T00:51:29;101582.56;;;9.43;100.00
53619;BME280;68717;53.040;18.488;2023-05-29T00:51:43;101579.91;;;9.43;100.00
53619;BME280;68717;53.040;18.488;2023-05-29T00:51:56;101580.84;;;9.42;100.00
53619;BME280;68717;53.040;18.488;2023-05-29T00:52:10;101579.00;;;9.42;100.00
53619;BME280;68717;53.040;18.488;2023-05-29T00:52:24;101582.56;;;9.43;100.00
53619;BME280;68717;53.040;18.488;2023-05-29T00:52:39;101583.50;;;9.42;100.00
53619;BME280;68717;53.040;18.488;2023-05-29T00:52:53;101580.84;;;9.42;100.00
53619;BME280;68717;53.040;18.488;2023-05-29T00:53:06;101582.66;;;9.41;100.00
53619;BME280;68717;53.040;18.488;2023-05-29T00:53:20;101578.16;;;9.42;100.00
53619;BME280;68717;53.040;18.488;2023-05-29T00:53:34;101578.16;;;9.42;100.00
53619;BME280;68717;53.040;18.488;2023-05-29T00:53:48;101585.34;;;9.41;100.00
53619;BME280;68717;53.040;18.488;2023-05-29T00:54:04;101579.13;;;9.41;100.00
53619;BME280;68717;53.040;18.488;2023-05-29T00:54:20;101575.59;;;9.40;100.00
53619;BME280;68717;53.040;18.488;2023-05-29T00:54:34;101583.63;;;9.40;100.00
53619;BME280;68717;53.040;18.488;2023-05-29T00:55:01;101578.34;;;9.39;100.00
53619;BME280;68717;53.040;18.488;2023-05-29T00:55:16;101583.69;;;9.39;100.00
53619;BME280;68717;53.040;18.488;2023-05-29T00:55:29;101580.28;;;9.37;100.00
53619;BME280;68717;53.040;18.488;2023-05-29T00:55:42;101576.84;;;9.35;100.00
53619;BME280;68717;53.040;18.488;2023-05-29T00:55:55;101583.91;;;9.36;100.00
53619;BME280;68717;53.040;18.488;2023-05-29T00:56:09;101583.13;;;9.34;100.00
53619;BME280;68717;53.040;18.488;2023-05-29T00:56:22;101584.97;;;9.33;100.00
53619;BME280;68717;53.040;18.488;2023-05-29T00:56:37;101584.97;;;9.33;100.00
53619;BME280;68717;53.040;18.488;2023-05-29T00:56:51;101584.13;;;9.33;100.00
53619;BME280;68717;53.040;18.488;2023-05-29T00:57:04;101584.13;;;9.33;100.00
53619;BME280;68717;53.040;18.488;2023-05-29T00:57:18;101584.13;;;9.33;100.00
53619;BME280;68717;53.040;18.488;2023-05-29T00:57:31;101586.78;;;9.33;100.00
53619;BME280;68717;53.040;18.488;2023-05-29T00:57:43;101582.38;;;9.32;100.00
53619;BME280;68717;53.040;18.488;2023-05-29T00:57:59;101582.38;;;9.32;100.00
53619;BME280;68717;53.040;18.488;2023-05-29T00:58:12;101575.34;;;9.31;100.00
53619;BME280;68717;53.040;18.488;2023-05-29T00:58:42;101583.38;;;9.31;100.00
53619;BME280;68717;53.040;18.488;2023-05-29T00:58:56;101584.34;;;9.30;100.00
53619;BME280;68717;53.040;18.488;2023-05-29T00:59:08;101576.31;;;9.30;100.00
53619;BME280;68717;53.040;18.488;2023-05-29T00:59:39;101585.19;;;9.30;100.00
53619;BME280;68717;53.040;18.488;2023-05-29T00:59:55;101582.50;;;9.30;100.00
53619;BME280;68717;53.040;18.488;2023-05-29T01:00:08;101583.47;;;9.29;100.00
53619;BME280;68717;53.040;18.488;2023-05-29T01:00:25;101579.94;;;9.29;100.00
53619;BME280;68717;53.040;18.488;2023-05-29T01:00:38;101589.69;;;9.30;100.00
53619;BME280;68717;53.040;18.488;2023-05-29T01:00:51;101587.00;;;9.30;100.00
53619;BME280;68717;53.040;18.488;2023-05-29T01:01:05;101587.97;;;9.29;100.00
53619;BME280;68717;53.040;18.488;2023-05-29T01:01:19;101581.75;;;9.28;100.00
53619;BME280;68717;53.040;18.488;2023-05-29T01:01:33;101588.94;;;9.28;100.00
53619;BME280;68717;53.040;18.488;2023-05-29T01:01:48;101590.72;;;9.27;100.00
53619;BME280;68717;53.040;18.488;2023-05-29T01:02:03;101587.19;;;9.27;100.00
53619;BME280;68717;53.040;18.488;2023-05-29T01:02:16;101585.38;;;9.27;100.00
53619;BME280;68717;53.040;18.488;2023-05-29T01:02:45;101584.63;;;9.25;100.00
53619;BME280;68717;53.040;18.488;2023-05-29T01:02:58;101583.78;;;9.24;100.00
53619;BME280;68717;53.040;18.488;2023-05-29T01:03:41;101582.06;;;9.23;100.00
53619;BME280;68717;53.040;18.488;2023-05-29T01:03:55;101585.59;;;9.24;100.00
53619;BME280;68717;53.040;18.488;2023-05-29T01:04:10;101591.03;;;9.22;100.00
53619;BME280;68717;53.040;18.488;2023-05-29T01:04:25;101586.66;;;9.21;100.00
53619;BME280;68717;53.040;18.488;2023-05-29T01:04:39;101587.53;;;9.22;100.00
53619;BME280;68717;53.040;18.488;2023-05-29T01:04:53;101583.13;;;9.21;100.00
53619;BME280;68717;53.040;18.488;2023-05-29T01:05:07;101588.50;;;9.21;100.00
53619;BME280;68717;53.040;18.488;2023-05-29T01:05:22;101585.81;;;9.21;100.00
53619;BME280;68717;53.040;18.488;2023-05-29T01:05:37;101582.25;;;9.20;100.00
53619;BME280;68717;53.040;18.488;2023-05-29T01:05:50;101581.41;;;9.20;100.00
53619;BME280;68717;53.040;18.488;2023-05-29T01:06:04;101585.06;;;9.19;100.00
53619;BME280;68717;53.040;18.488;2023-05-29T01:06:16;101585.91;;;9.19;100.00
53619;BME280;68717;53.040;18.488;2023-05-29T01:06:32;101583.25;;;9.19;100.00
53619;BME280;68717;53.040;18.488;2023-05-29T01:06:44;101584.09;;;9.20;100.00
53619;BME280;68717;53.040;18.488;2023-05-29T01:06:57;101584.19;;;9.18;100.00
53619;BME280;68717;53.040;18.488;2023-05-29T01:07:10;101586.84;;;9.18;100.00
53619;BME280;68717;53.040;18.488;2023-05-29T01:07:23;101585.06;;;9.19;100.00
53619;BME280;68717;53.040;18.488;2023-05-29T01:07:35;101585.16;;;9.17;100.00
53619;BME280;68717;53.040;18.488;2023-05-29T01:07:48;101585.16;;;9.17;100.00
53619;BME280;68717;53.040;18.488;2023-05-29T01:08:02;101585.16;;;9.17;100.00
53619;BME280;68717;53.040;18.488;2023-05-29T01:08:16;101585.16;;;9.17;100.00
53619;BME280;68717;53.040;18.488;2023-05-29T01:08:28;101586.97;;;9.17;100.00
53619;BME280;68717;53.040;18.488;2023-05-29T01:08:41;101585.25;;;9.16;100.00
53619;BME280;68717;53.040;18.488;2023-05-29T01:08:54;101582.56;;;9.16;100.00
53619;BME280;68717;53.040;18.488;2023-05-29T01:09:06;101581.72;;;9.15;100.00
53619;BME280;68717;53.040;18.488;2023-05-29T01:09:19;101588.91;;;9.15;100.00
53619;BME280;68717;53.040;18.488;2023-05-29T01:09:32;101581.81;;;9.14;100.00
53619;BME280;68717;53.040;18.488;2023-05-29T01:09:46;101580.97;;;9.13;100.00
53619;BME280;68717;53.040;18.488;2023-05-29T01:10:00;101583.63;;;9.13;100.00
53619;BME280;68717;53.040;18.488;2023-05-29T01:10:13;101587.28;;;9.12;100.00
53619;BME280;68717;53.040;18.488;2023-05-29T01:10:26;101583.72;;;9.12;100.00
53619;BME280;68717;53.040;18.488;2023-05-29T01:10:39;101587.28;;;9.12;100.00
53619;BME280;68717;53.040;18.488;2023-05-29T01:10:56;101585.56;;;9.11;100.00
53619;BME280;68717;53.040;18.488;2023-05-29T01:11:19;101581.19;;;9.10;100.00
53619;BME280;68717;53.040;18.488;2023-05-29T01:11:39;101590.16;;;9.09;100.00
53619;BME280;68717;53.040;18.488;2023-05-29T01:11:59;101584.91;;;9.08;100.00
53619;BME280;68717;53.040;18.488;2023-05-29T01:12:33;101587.69;;;9.06;100.00
53619;BME280;68717;53.040;18.488;2023-05-29T01:12:55;101586.81;;;9.06;100.00
53619;BME280;68717;53.040;18.488;2023-05-29T01:13:15;101586.81;;;9.06;100.00
53619;BME280;68717;53.040;18.488;2023-05-29T01:13:31;101585.97;;;9.05;100.00
53619;BME280;68717;53.040;18.488;2023-05-29T01:13:49;101586.94;;;9.04;100.00
53619;BME280;68717;53.040;18.488;2023-05-29T01:14:06;101587.78;;;9.04;100.00
53619;BME280;68717;53.040;18.488;2023-05-29T01:14:29;101583.41;;;9.03;100.00
53619;BME280;68717;53.040;18.488;2023-05-29T01:14:48;101594.13;;;9.03;100.00
53619;BME280;68717;53.040;18.488;2023-05-29T01:15:39;101596.88;;;9.02;100.00
53619;BME280;68717;53.040;18.488;2023-05-29T01:16:00;101590.56;;;9.03;100.00
53619;BME280;68717;53.040;18.488;2023-05-29T01:16:22;101585.22;;;9.03;100.00
53619;BME280;68717;53.040;18.488;2023-05-29T01:16:43;101593.22;;;9.03;100.00
53619;BME280;68717;53.040;18.488;2023-05-29T01:17:04;101593.22;;;9.03;100.00
53619;BME280;68717;53.040;18.488;2023-05-29T01:17:23;101596.78;;;9.03;100.00
53619;BME280;68717;53.040;18.488;2023-05-29T01:17:44;101583.41;;;9.03;100.00
53619;BME280;68717;53.040;18.488;2023-05-29T01:18:21;101587.88;;;9.03;100.00
53619;BME280;68717;53.040;18.488;2023-05-29T01:18:41;101578.16;;;9.02;100.00
53619;BME280;68717;53.040;18.488;2023-05-29T01:19:06;101587.03;;;9.02;100.00
53619;BME280;68717;53.040;18.488;2023-05-29T01:19:41;101583.50;;;9.02;100.00
53619;BME280;68717;53.040;18.488;2023-05-29T01:20:07;101594.22;;;9.02;100.00
53619;BME280;68717;53.040;18.488;2023-05-29T01:20:27;101592.47;;;9.01;100.00
53619;BME280;68717;53.040;18.488;2023-05-29T01:20:49;101593.44;;;9.00;100.00
53619;BME280;68717;53.040;18.488;2023-05-29T01:21:08;101589.81;;;9.01;100.00
53619;BME280;68717;53.040;18.488;2023-05-29T01:21:31;101583.59;;;9.00;100.00
53619;BME280;68717;53.040;18.488;2023-05-29T01:21:59;101589.81;;;9.01;100.00
53619;BME280;68717;53.040;18.488;2023-05-29T01:22:29;101588.94;;;9.00;100.00
53619;BME280;68717;53.040;18.488;2023-05-29T01:23:06;101589.03;;;8.99;100.00
53619;BME280;68717;53.040;18.488;2023-05-29T01:23:40;101593.53;;;8.98;100.00
53619;BME280;68717;53.040;18.488;2023-05-29T01:24:03;101590.00;;;8.98;100.00
53619;BME280;68717;53.040;18.488;2023-05-29T01:24:26;101595.38;;;8.98;100.00